sensor_id;sensor_type;location;lat;lon;timestamp;pressure;altitude;pressure_sealevel;temperature;humidity
36630;BME280;36256;42.154;23.002;2022-11-12T00:01:07;98497.22;;;11.16;87.46
36630;BME280;36256;42.154;23.002;2022-11-12T00:03:35;98499.63;;;11.17;87.84
36630;BME280;36256;42.154;23.002;2022-11-12T00:06:02;98467.03;;;11.00;88.17
36630;BME280;36256;42.154;23.002;2022-11-12T00:08:29;98476.13;;;11.07;87.99
36630;BME280;36256;42.154;23.002;2022-11-12T00:10:56;98485.78;;;11.07;87.81
36630;BME280;36256;42.154;23.002;2022-11-12T00:13:24;98486.63;;;11.03;88.22
36630;BME280;36256;42.154;23.002;2022-11-12T00:15:51;98467.81;;;11.00;88.69
36630;BME280;36256;42.154;23.002;2022-11-12T00:18:17;98492.47;;;11.13;87.80
36630;BME280;36256;42.154;23.002;2022-11-12T00:20:45;98475.88;;;10.98;88.54
36630;BME280;36256;42.154;23.002;2022-11-12T00:23:12;98474.41;;;10.90;88.95
36630;BME280;36256;42.154;23.002;2022-11-12T00:25:40;98458.72;;;10.93;88.52
36630;BME280;36256;42.154;23.002;2022-11-12T00:28:09;98468.72;;;10.94;87.90
36630;BME280;36256;42.154;23.002;2022-11-12T00:30:37;98478.31;;;10.96;87.71
36630;BME280;36256;42.154;23.002;2022-11-12T00:33:05;98475.03;;;11.01;87.77
36630;BME280;36256;42.154;23.002;2022-11-12T00:35:33;98449.13;;;10.90;87.59
36630;BME280;36256;42.154;23.002;2022-11-12T00:38:01;98447.50;;;10.93;87.78
36630;BME280;36256;42.154;23.002;2022-11-12T00:40:29;98439.63;;;10.84;88.29
36630;BME280;36256;42.154;23.002;2022-11-12T00:42:57;98441.28;;;10.82;88.58
36630;BME280;36256;42.154;23.002;2022-11-12T00:45:24;98455.63;;;10.87;88.63
36630;BME280;36256;42.154;23.002;2022-11-12T00:47:55;98450.22;;;10.96;87.89
36630;BME280;36256;42.154;23.002;2022-11-12T00:50:24;98437.28;;;10.79;88.13
36630;BME280;36256;42.154;23.002;2022-11-12T00:52:52;98445.13;;;10.91;87.94
36630;BME280;36256;42.154;23.002;2022-11-12T00:55:20;98449.47;;;10.96;88.00
36630;BME280;36256;42.154;23.002;2022-11-12T00:57:47;98434.53;;;10.99;87.86
36630;BME280;36256;42.154;23.002;2022-11-12T01:00:16;98431.81;;;10.95;87.27
36630;BME280;36256;42.154;23.002;2022-11-12T01:02:45;98437.50;;;11.12;87.19
36630;BME280;36256;42.154;23.002;2022-11-12T01:05:18;98444.28;;;11.14;86.56
36630;BME280;36256;42.154;23.002;2022-11-12T01:07:46;98436.22;;;11.16;87.00
36630;BME280;36256;42.154;23.002;2022-11-12T01:10:21;98439.47;;;11.15;87.42
36630;BME280;36256;42.154;23.002;2022-11-12T01:12:49;98438.03;;;11.07;87.79
36630;BME280;36256;42.154;23.002;2022-11-12T01:15:16;98418.13;;;10.97;87.70
36630;BME280;36256;42.154;23.002;2022-11-12T01:17:42;98417.69;;;10.99;88.27
36630;BME280;36256;42.154;23.002;2022-11-12T01:20:10;98410.44;;;11.01;88.54
36630;BME280;36256;42.154;23.002;2022-11-12T01:22:38;98410.44;;;11.01;88.03
36630;BME280;36256;42.154;23.002;2022-11-12T01:25:06;98405.53;;;11.05;87.66
36630;BME280;36256;42.154;23.002;2022-11-12T01:27:33;98419.44;;;11.13;87.31
36630;BME280;36256;42.154;23.002;2022-11-12T01:30:01;98413.03;;;11.12;87.40
36630;BME280;36256;42.154;23.002;2022-11-12T01:32:33;98404.84;;;11.21;86.71
36630;BME280;36256;42.154;23.002;2022-11-12T01:34:59;98395.16;;;11.22;86.68
36630;BME280;36256;42.154;23.002;2022-11-12T01:37:27;98385.56;;;11.20;86.66
36630;BME280;36256;42.154;23.002;2022-11-12T01:39:55;98392.94;;;11.14;87.03
36630;BME280;36256;42.154;23.002;2022-11-12T01:42:28;98384.44;;;10.97;87.36
36630;BME280;36256;42.154;23.002;2022-11-12T01:44:57;98383.72;;;10.93;87.76
36630;BME280;36256;42.154;23.002;2022-11-12T01:47:29;98393.56;;;11.01;87.53
36630;BME280;36256;42.154;23.002;2022-11-12T01:50:13;98388.75;;;11.02;88.13
36630;BME280;36256;42.154;23.002;2022-11-12T01:52:50;98379.00;;;10.87;89.00
36630;BME280;36256;42.154;23.002;2022-11-12T01:55:31;98390.28;;;10.83;89.17
36630;BME280;36256;42.154;23.002;2022-11-12T01:58:13;98387.88;;;10.85;90.20
36630;BME280;36256;42.154;23.002;2022-11-12T02:00:41;98367.06;;;10.83;89.30
36630;BME280;36256;42.154;23.002;2022-11-12T02:03:14;98371.22;;;10.94;88.51
36630;BME280;36256;42.154;23.002;2022-11-12T02:05:45;98318.22;;;10.57;88.92
36630;BME280;36256;42.154;23.002;2022-11-12T02:08:13;98363.31;;;10.89;89.31
36630;BME280;36256;42.154;23.002;2022-11-12T02:10:41;98335.22;;;10.70;88.79
36630;BME280;36256;42.154;23.002;2022-11-12T02:13:09;98345.22;;;10.71;89.01
36630;BME280;36256;42.154;23.002;2022-11-12T02:15:54;98354.31;;;10.78;89.43
36630;BME280;36256;42.154;23.002;2022-11-12T02:18:23;98344.81;;;10.72;88.94
36630;BME280;36256;42.154;23.002;2022-11-12T02:20:57;98370.16;;;10.88;88.80
36630;BME280;36256;42.154;23.002;2022-11-12T02:23:24;98345.53;;;10.76;88.88
36630;BME280;36256;42.154;23.002;2022-11-12T02:25:50;98343.06;;;10.78;89.16
36630;BME280;36256;42.154;23.002;2022-11-12T02:28:18;98353.59;;;10.74;90.53
36630;BME280;36256;42.154;23.002;2022-11-12T02:30:47;98361.66;;;10.72;90.46
36630;BME280;36256;42.154;23.002;2022-11-12T02:33:15;98358.47;;;10.70;91.28
36630;BME280;36256;42.154;23.002;2022-11-12T02:35:43;98354.19;;;10.62;92.21
36630;BME280;36256;42.154;23.002;2022-11-12T02:38:11;98330.31;;;10.31;92.19
36630;BME280;36256;42.154;23.002;2022-11-12T02:40:38;98374.72;;;10.59;92.48
36630;BME280;36256;42.154;23.002;2022-11-12T02:43:06;98368.59;;;10.41;93.35
36630;BME280;36256;42.154;23.002;2022-11-12T02:45:34;98353.38;;;10.42;92.91
36630;BME280;36256;42.154;23.002;2022-11-12T02:48:01;98373.84;;;10.39;93.14
36630;BME280;36256;42.154;23.002;2022-11-12T02:50:29;98367.88;;;10.37;93.56
36630;BME280;36256;42.154;23.002;2022-11-12T02:52:57;98370.19;;;10.42;93.07
36630;BME280;36256;42.154;23.002;2022-11-12T02:55:25;98372.53;;;10.47;92.24
36630;BME280;36256;42.154;23.002;2022-11-12T02:57:56;98369.41;;;10.42;91.97
36630;BME280;36256;42.154;23.002;2022-11-12T03:00:26;98386.00;;;10.56;91.83
36630;BME280;36256;42.154;23.002;2022-11-12T03:02:54;98374.09;;;10.48;91.61
36630;BME280;36256;42.154;23.002;2022-11-12T03:05:30;98380.44;;;10.52;91.54
36630;BME280;36256;42.154;23.002;2022-11-12T03:07:59;98375.19;;;10.54;91.51
36630;BME280;36256;42.154;23.002;2022-11-12T03:10:28;98376.28;;;10.60;90.40
36630;BME280;36256;42.154;23.002;2022-11-12T03:12:58;98369.94;;;10.56;90.22
36630;BME280;36256;42.154;23.002;2022-11-12T03:15:25;98373.00;;;10.65;90.14
36630;BME280;36256;42.154;23.002;2022-11-12T03:17:53;98370.66;;;10.60;89.97
36630;BME280;36256;42.154;23.002;2022-11-12T03:20:21;98348.97;;;10.41;89.89
36630;BME280;36256;42.154;23.002;2022-11-12T03:23:00;98362.88;;;10.48;90.14
36630;BME280;36256;42.154;23.002;2022-11-12T03:25:28;98369.34;;;10.45;90.55
36630;BME280;36256;42.154;23.002;2022-11-12T03:28:00;98370.28;;;10.39;90.86
36630;BME280;36256;42.154;23.002;2022-11-12T03:30:29;98327.59;;;10.01;91.51
36630;BME280;36256;42.154;23.002;2022-11-12T03:32:57;98359.97;;;10.32;91.17
36630;BME280;36256;42.154;23.002;2022-11-12T03:35:25;98358.06;;;10.25;90.96
36630;BME280;36256;42.154;23.002;2022-11-12T03:37:53;98363.13;;;10.34;90.80
36630;BME280;36256;42.154;23.002;2022-11-12T03:40:20;98351.28;;;10.23;91.10
36630;BME280;36256;42.154;23.002;2022-11-12T03:42:49;98335.53;;;10.06;90.86
36630;BME280;36256;42.154;23.002;2022-11-12T03:45:19;98342.63;;;10.14;90.86
36630;BME280;36256;42.154;23.002;2022-11-12T03:47:48;98364.03;;;10.27;90.20
36630;BME280;36256;42.154;23.002;2022-11-12T03:50:18;98361.59;;;10.30;89.96
36630;BME280;36256;42.154;23.002;2022-11-12T03:52:48;98346.66;;;10.13;90.18
36630;BME280;36256;42.154;23.002;2022-11-12T03:55:19;98361.06;;;10.15;90.45
36630;BME280;36256;42.154;23.002;2022-11-12T03:57:50;98366.66;;;10.15;90.08
36630;BME280;36256;42.154;23.002;2022-11-12T04:00:18;98365.84;;;10.14;89.57
36630;BME280;36256;42.154;23.002;2022-11-12T04:02:46;98377.06;;;10.14;89.38
36630;BME280;36256;42.154;23.002;2022-11-12T04:05:14;98382.81;;;10.04;90.09
36630;BME280;36256;42.154;23.002;2022-11-12T04:08:02;98376.38;;;10.07;88.49
36630;BME280;36256;42.154;23.002;2022-11-12T04:10:50;98384.31;;;10.12;88.05
36630;BME280;36256;42.154;23.002;2022-11-12T04:13:18;98370.78;;;10.07;87.65
36630;BME280;36256;42.154;23.002;2022-11-12T04:16:00;98379.34;;;10.23;87.35
36630;BME280;36256;42.154;23.002;2022-11-12T04:18:48;98304.03;;;9.72;86.42
36630;BME280;36256;42.154;23.002;2022-11-12T04:21:42;98373.09;;;10.12;87.03
36630;BME280;36256;42.154;23.002;2022-11-12T04:27:22;98373.09;;;10.12;85.88
36630;BME280;36256;42.154;23.002;2022-11-12T04:29:50;98366.28;;;10.13;85.74
36630;BME280;36256;42.154;23.002;2022-11-12T04:32:49;98369.91;;;10.10;85.50
36630;BME280;36256;42.154;23.002;2022-11-12T04:35:16;98355.06;;;10.13;84.88
36630;BME280;36256;42.154;23.002;2022-11-12T04:37:46;98364.22;;;10.17;84.60
36630;BME280;36256;42.154;23.002;2022-11-12T04:40:24;98360.25;;;10.14;84.20
36630;BME280;36256;42.154;23.002;2022-11-12T04:43:14;98362.72;;;10.09;84.36
36630;BME280;36256;42.154;23.002;2022-11-12T04:46:03;98366.06;;;10.00;84.88
36630;BME280;36256;42.154;23.002;2022-11-12T04:48:31;98356.22;;;9.89;84.63
36630;BME280;36256;42.154;23.002;2022-11-12T04:51:03;98360.03;;;10.02;83.54
36630;BME280;36256;42.154;23.002;2022-11-12T04:53:54;98336.19;;;9.90;83.31
36630;BME280;36256;42.154;23.002;2022-11-12T04:56:22;98344.44;;;10.01;82.87
36630;BME280;36256;42.154;23.002;2022-11-12T04:58:49;98336.75;;;9.78;82.83
36630;BME280;36256;42.154;23.002;2022-11-12T05:01:17;98339.09;;;9.83;82.32
36630;BME280;36256;42.154;23.002;2022-11-12T05:03:44;98341.72;;;9.94;81.42
36630;BME280;36256;42.154;23.002;2022-11-12T05:06:11;98341.38;;;9.92;81.23
36630;BME280;36256;42.154;23.002;2022-11-12T05:08:58;98357.28;;;9.98;81.18
36630;BME280;36256;42.154;23.002;2022-11-12T05:11:25;98337.41;;;9.89;81.28
36630;BME280;36256;42.154;23.002;2022-11-12T05:13:53;98348.19;;;9.91;81.66
36630;BME280;36256;42.154;23.002;2022-11-12T05:16:21;98337.09;;;9.84;81.44
36630;BME280;36256;42.154;23.002;2022-11-12T05:18:48;98351.84;;;9.88;82.31
36630;BME280;36256;42.154;23.002;2022-11-12T05:21:15;98349.50;;;9.83;81.20
36630;BME280;36256;42.154;23.002;2022-11-12T05:24:09;98339.25;;;9.73;81.50
36630;BME280;36256;42.154;23.002;2022-11-12T05:26:56;98331.13;;;9.82;81.31
36630;BME280;36256;42.154;23.002;2022-11-12T05:29:23;98343.09;;;9.82;81.66
36630;BME280;36256;42.154;23.002;2022-11-12T05:31:50;98338.41;;;9.76;80.38
36630;BME280;36256;42.154;23.002;2022-11-12T05:34:17;98304.25;;;9.58;80.35
36630;BME280;36256;42.154;23.002;2022-11-12T05:36:49;98360.63;;;9.90;80.24
36630;BME280;36256;42.154;23.002;2022-11-12T05:39:19;98358.66;;;9.87;80.28
36630;BME280;36256;42.154;23.002;2022-11-12T05:41:47;98344.41;;;9.78;79.61
36630;BME280;36256;42.154;23.002;2022-11-12T05:44:35;98345.97;;;9.79;79.05
36630;BME280;36256;42.154;23.002;2022-11-12T05:47:03;98375.75;;;9.96;79.41
36630;BME280;36256;42.154;23.002;2022-11-12T05:49:30;98364.97;;;9.94;78.49
36630;BME280;36256;42.154;23.002;2022-11-12T05:51:57;98363.72;;;9.95;78.74
36630;BME280;36256;42.154;23.002;2022-11-12T05:54:25;98374.13;;;9.95;78.06
36630;BME280;36256;42.154;23.002;2022-11-12T05:56:52;98384.47;;;10.01;77.67
36630;BME280;36256;42.154;23.002;2022-11-12T05:59:20;98406.75;;;10.12;77.75
36630;BME280;36256;42.154;23.002;2022-11-12T06:01:49;98417.81;;;10.22;77.04
36630;BME280;36256;42.154;23.002;2022-11-12T06:04:16;98420.22;;;10.24;77.04
36630;BME280;36256;42.154;23.002;2022-11-12T06:06:43;98421.06;;;10.21;77.34
36630;BME280;36256;42.154;23.002;2022-11-12T06:09:11;98416.41;;;10.11;77.82
36630;BME280;36256;42.154;23.002;2022-11-12T06:11:39;98432.88;;;10.05;78.74
36630;BME280;36256;42.154;23.002;2022-11-12T06:14:07;98423.78;;;9.98;79.09
36630;BME280;36256;42.154;23.002;2022-11-12T06:16:35;98435.00;;;9.98;79.71
36630;BME280;36256;42.154;23.002;2022-11-12T06:19:01;98425.56;;;9.85;79.77
36630;BME280;36256;42.154;23.002;2022-11-12T06:21:29;98432.72;;;9.89;80.61
36630;BME280;36256;42.154;23.002;2022-11-12T06:23:58;98444.50;;;10.04;80.88
36630;BME280;36256;42.154;23.002;2022-11-12T06:26:28;98444.81;;;10.13;82.01
36630;BME280;36256;42.154;23.002;2022-11-12T06:28:57;98438.84;;;10.11;81.30
36630;BME280;36256;42.154;23.002;2022-11-12T06:31:24;98437.22;;;10.10;80.79
36630;BME280;36256;42.154;23.002;2022-11-12T06:33:52;98445.81;;;10.26;80.08
36630;BME280;36256;42.154;23.002;2022-11-12T06:36:20;98422.81;;;10.11;79.74
36630;BME280;36256;42.154;23.002;2022-11-12T06:38:47;98448.88;;;10.35;79.78
36630;BME280;36256;42.154;23.002;2022-11-12T06:41:14;98449.50;;;10.46;79.29
36630;BME280;36256;42.154;23.002;2022-11-12T06:43:42;98456.66;;;10.51;78.27
36630;BME280;36256;42.154;23.002;2022-11-12T07:03:32;98415.97;;;11.64;70.44
36630;BME280;36256;42.154;23.002;2022-11-12T07:06:03;98421.91;;;11.69;70.05
36630;BME280;36256;42.154;23.002;2022-11-12T07:08:30;98422.84;;;11.82;69.00
36630;BME280;36256;42.154;23.002;2022-11-12T07:10:57;98428.66;;;11.92;69.10
36630;BME280;36256;42.154;23.002;2022-11-12T07:13:24;98417.25;;;12.15;68.50
36630;BME280;36256;42.154;23.002;2022-11-12T07:15:50;98415.09;;;12.38;67.04
36630;BME280;36256;42.154;23.002;2022-11-12T07:18:17;98414.94;;;12.45;65.95
36630;BME280;36256;42.154;23.002;2022-11-12T07:20:43;98426.63;;;12.60;65.74
36630;BME280;36256;42.154;23.002;2022-11-12T07:23:10;98420.16;;;12.76;65.38
36630;BME280;36256;42.154;23.002;2022-11-12T07:25:36;98421.53;;;13.16;62.78
36630;BME280;36256;42.154;23.002;2022-11-12T07:28:03;98409.81;;;13.46;61.63
36630;BME280;36256;42.154;23.002;2022-11-12T07:30:30;98414.16;;;13.63;62.53
36630;BME280;36256;42.154;23.002;2022-11-12T07:32:57;98398.63;;;13.96;60.07
36630;BME280;36256;42.154;23.002;2022-11-12T07:35:23;98409.41;;;14.39;58.23
36630;BME280;36256;42.154;23.002;2022-11-12T07:37:50;98410.13;;;14.90;56.54
36630;BME280;36256;42.154;23.002;2022-11-12T07:40:21;98399.44;;;15.07;54.96
36630;BME280;36256;42.154;23.002;2022-11-12T07:42:47;98402.28;;;14.94;55.29
36630;BME280;36256;42.154;23.002;2022-11-12T07:45:14;98390.88;;;15.53;53.65
36630;BME280;36256;42.154;23.002;2022-11-12T07:47:41;98405.44;;;15.64;52.91
36630;BME280;36256;42.154;23.002;2022-11-12T07:50:07;98385.72;;;15.18;54.00
36630;BME280;36256;42.154;23.002;2022-11-12T07:52:34;98392.44;;;15.54;52.78
36630;BME280;36256;42.154;23.002;2022-11-12T07:55:01;98391.19;;;16.08;52.04
36630;BME280;36256;42.154;23.002;2022-11-12T07:57:27;98388.47;;;16.26;51.26
36630;BME280;36256;42.154;23.002;2022-11-12T07:59:54;98380.31;;;17.13;48.42
36630;BME280;36256;42.154;23.002;2022-11-12T08:02:20;98373.50;;;16.25;49.04
36630;BME280;36256;42.154;23.002;2022-11-12T08:04:47;98369.84;;;16.16;49.54
36630;BME280;36256;42.154;23.002;2022-11-12T08:07:13;98394.66;;;16.42;49.78
36630;BME280;36256;42.154;23.002;2022-11-12T08:09:40;98376.72;;;17.31;46.48
36630;BME280;36256;42.154;23.002;2022-11-12T08:12:07;98375.91;;;17.03;47.93
36630;BME280;36256;42.154;23.002;2022-11-12T08:14:34;98381.38;;;16.70;48.33
36630;BME280;36256;42.154;23.002;2022-11-12T08:17:00;98378.09;;;16.32;49.90
36630;BME280;36256;42.154;23.002;2022-11-12T08:19:27;98371.66;;;17.62;46.54
36630;BME280;36256;42.154;23.002;2022-11-12T08:21:53;98365.31;;;18.27;45.54
36630;BME280;36256;42.154;23.002;2022-11-12T08:24:20;98370.06;;;17.06;47.46
36630;BME280;36256;42.154;23.002;2022-11-12T08:26:47;98362.84;;;17.42;46.02
36630;BME280;36256;42.154;23.002;2022-11-12T08:29:13;98368.84;;;17.16;47.19
36630;BME280;36256;42.154;23.002;2022-11-12T08:31:40;98349.41;;;17.69;46.09
36630;BME280;36256;42.154;23.002;2022-11-12T08:34:07;98339.94;;;18.56;43.76
36630;BME280;36256;42.154;23.002;2022-11-12T08:36:47;98344.22;;;18.51;44.21
36630;BME280;36256;42.154;23.002;2022-11-12T08:39:14;98343.00;;;19.14;42.64
36630;BME280;36256;42.154;23.002;2022-11-12T08:41:40;98344.97;;;19.23;43.02
36630;BME280;36256;42.154;23.002;2022-11-12T08:44:07;98342.34;;;18.96;43.88
36630;BME280;36256;42.154;23.002;2022-11-12T08:46:34;98346.59;;;18.76;43.11
36630;BME280;36256;42.154;23.002;2022-11-12T08:49:01;98353.13;;;19.97;41.01
36630;BME280;36256;42.154;23.002;2022-11-12T08:51:27;98345.84;;;19.96;40.37
36630;BME280;36256;42.154;23.002;2022-11-12T08:53:54;98358.22;;;19.64;41.75
36630;BME280;36256;42.154;23.002;2022-11-12T08:56:20;98338.72;;;18.95;42.71
36630;BME280;36256;42.154;23.002;2022-11-12T08:58:47;98352.34;;;19.53;41.76
36630;BME280;36256;42.154;23.002;2022-11-12T09:01:13;98348.50;;;20.14;40.29
36630;BME280;36256;42.154;23.002;2022-11-12T09:03:40;98339.75;;;19.45;41.99
36630;BME280;36256;42.154;23.002;2022-11-12T09:06:07;98352.13;;;19.42;42.19
36630;BME280;36256;42.154;23.002;2022-11-12T09:08:35;98385.50;;;18.70;41.88
36630;BME280;36256;42.154;23.002;2022-11-12T09:11:02;98386.47;;;17.39;45.86
36630;BME280;36256;42.154;23.002;2022-11-12T09:13:29;98387.56;;;17.05;46.47
36630;BME280;36256;42.154;23.002;2022-11-12T09:16:03;98396.16;;;16.65;46.00
36630;BME280;36256;42.154;23.002;2022-11-12T09:18:31;98400.97;;;16.16;48.38
36630;BME280;36256;42.154;23.002;2022-11-12T09:21:05;98404.66;;;15.95;48.17
36630;BME280;36256;42.154;23.002;2022-11-12T09:23:33;98410.22;;;15.55;50.06
36630;BME280;36256;42.154;23.002;2022-11-12T09:26:00;98413.50;;;15.53;50.46
36630;BME280;36256;42.154;23.002;2022-11-12T09:28:27;98408.03;;;15.37;49.50
36630;BME280;36256;42.154;23.002;2022-11-12T09:30:54;98403.59;;;15.36;49.75
36630;BME280;36256;42.154;23.002;2022-11-12T09:33:24;98408.56;;;15.11;50.48
36630;BME280;36256;42.154;23.002;2022-11-12T09:35:51;98410.06;;;15.03;53.11
36630;BME280;36256;42.154;23.002;2022-11-12T09:38:18;98417.59;;;14.84;52.12
36630;BME280;36256;42.154;23.002;2022-11-12T09:46:01;98415.03;;;14.27;54.93
36630;BME280;36256;42.154;23.002;2022-11-12T09:48:58;98425.19;;;14.24;54.56
36630;BME280;36256;42.154;23.002;2022-11-12T09:51:32;98420.56;;;14.17;56.09
36630;BME280;36256;42.154;23.002;2022-11-12T09:54:26;98403.63;;;14.17;55.28
36630;BME280;36256;42.154;23.002;2022-11-12T09:56:53;98410.94;;;14.15;54.94
36630;BME280;36256;42.154;23.002;2022-11-12T09:59:22;98413.56;;;14.09;56.26
36630;BME280;36256;42.154;23.002;2022-11-12T10:01:56;98410.28;;;14.24;55.27
36630;BME280;36256;42.154;23.002;2022-11-12T10:10:29;98420.75;;;14.86;55.36
36630;BME280;36256;42.154;23.002;2022-11-12T10:13:22;98419.66;;;14.71;53.51
36630;BME280;36256;42.154;23.002;2022-11-12T10:19:04;98406.44;;;14.55;53.00
36630;BME280;36256;42.154;23.002;2022-11-12T10:21:52;98406.09;;;14.53;54.87
36630;BME280;36256;42.154;23.002;2022-11-12T10:24:28;98413.56;;;14.60;52.99
36630;BME280;36256;42.154;23.002;2022-11-12T10:26:59;98407.47;;;14.49;53.44
36630;BME280;36256;42.154;23.002;2022-11-12T10:29:31;98406.22;;;14.25;54.77
36630;BME280;36256;42.154;23.002;2022-11-12T10:32:02;98414.38;;;14.35;56.16
36630;BME280;36256;42.154;23.002;2022-11-12T10:34:28;98422.06;;;14.35;55.66
36630;BME280;36256;42.154;23.002;2022-11-12T10:37:00;98416.25;;;14.26;56.24
36630;BME280;36256;42.154;23.002;2022-11-12T10:39:42;98416.84;;;14.21;53.69
36630;BME280;36256;42.154;23.002;2022-11-12T10:42:16;98411.19;;;14.21;54.91
36630;BME280;36256;42.154;23.002;2022-11-12T10:44:43;98419.41;;;14.28;54.48
36630;BME280;36256;42.154;23.002;2022-11-12T10:50:03;98409.38;;;14.14;54.18
36630;BME280;36256;42.154;23.002;2022-11-12T10:52:31;98426.88;;;14.22;55.36
36630;BME280;36256;42.154;23.002;2022-11-12T10:55:20;98418.06;;;14.19;53.13
36630;BME280;36256;42.154;23.002;2022-11-12T11:00:37;98412.31;;;14.23;54.94
36630;BME280;36256;42.154;23.002;2022-11-12T11:03:21;98409.38;;;14.14;53.72
36630;BME280;36256;42.154;23.002;2022-11-12T11:05:54;98408.03;;;14.18;54.47
36630;BME280;36256;42.154;23.002;2022-11-12T11:13:45;98394.00;;;14.15;53.27
36630;BME280;36256;42.154;23.002;2022-11-12T11:16:20;98394.00;;;14.15;53.72
36630;BME280;36256;42.154;23.002;2022-11-12T11:18:51;98399.44;;;14.09;54.83
36630;BME280;36256;42.154;23.002;2022-11-12T11:29:58;98407.06;;;13.71;56.34
36630;BME280;36256;42.154;23.002;2022-11-12T11:37:30;98402.78;;;13.79;55.92
36630;BME280;36256;42.154;23.002;2022-11-12T11:40:14;98395.56;;;13.66;56.61
36630;BME280;36256;42.154;23.002;2022-11-12T11:56:31;98407.06;;;13.71;57.88
36630;BME280;36256;42.154;23.002;2022-11-12T11:59:27;98404.94;;;13.75;57.36
36630;BME280;36256;42.154;23.002;2022-11-12T12:23:44;98390.41;;;13.89;58.41
36630;BME280;36256;42.154;23.002;2022-11-12T12:26:35;98391.50;;;13.92;57.66
36630;BME280;36256;42.154;23.002;2022-11-12T12:29:13;98393.00;;;13.96;59.46
36630;BME280;36256;42.154;23.002;2022-11-12T12:31:56;98387.59;;;14.02;59.99
36630;BME280;36256;42.154;23.002;2022-11-12T12:34:36;98386.28;;;14.32;60.39
36630;BME280;36256;42.154;23.002;2022-11-12T12:42:50;98364.00;;;14.93;56.87
36630;BME280;36256;42.154;23.002;2022-11-12T12:45:41;98370.41;;;14.93;56.11
36630;BME280;36256;42.154;23.002;2022-11-12T12:48:16;98360.97;;;14.75;56.88
36630;BME280;36256;42.154;23.002;2022-11-12T12:50:45;98344.22;;;14.93;54.82
36630;BME280;36256;42.154;23.002;2022-11-12T12:55:56;98351.78;;;15.18;53.84
36630;BME280;36256;42.154;23.002;2022-11-12T13:03:54;98352.28;;;15.25;53.37
36630;BME280;36256;42.154;23.002;2022-11-12T13:09:21;98364.47;;;14.79;55.52
36630;BME280;36256;42.154;23.002;2022-11-12T13:11:48;98360.66;;;14.73;54.63
36630;BME280;36256;42.154;23.002;2022-11-12T13:16:59;98361.97;;;14.81;56.48
36630;BME280;36256;42.154;23.002;2022-11-12T13:19:27;98366.16;;;14.76;56.52
36630;BME280;36256;42.154;23.002;2022-11-12T13:32:41;98344.41;;;14.99;55.12
36630;BME280;36256;42.154;23.002;2022-11-12T13:40:32;98369.75;;;14.89;57.81
36630;BME280;36256;42.154;23.002;2022-11-12T13:43:09;98361.31;;;14.77;55.39
36630;BME280;36256;42.154;23.002;2022-11-12T13:48:30;98376.66;;;14.29;57.20
36630;BME280;36256;42.154;23.002;2022-11-12T13:51:15;98375.03;;;14.15;57.86
36630;BME280;36256;42.154;23.002;2022-11-12T13:53:42;98377.66;;;13.97;58.27
36630;BME280;36256;42.154;23.002;2022-11-12T13:56:10;98380.81;;;13.87;58.39
36630;BME280;36256;42.154;23.002;2022-11-12T13:58:37;98384.50;;;13.71;58.61
36630;BME280;36256;42.154;23.002;2022-11-12T14:01:09;98388.44;;;13.61;58.46
36630;BME280;36256;42.154;23.002;2022-11-12T14:06:14;98371.56;;;13.32;59.36
36630;BME280;36256;42.154;23.002;2022-11-12T14:09:02;98387.69;;;13.32;59.24
36630;BME280;36256;42.154;23.002;2022-11-12T14:14:28;98387.31;;;13.17;61.06
36630;BME280;36256;42.154;23.002;2022-11-12T14:22:41;98396.41;;;13.09;63.38
36630;BME280;36256;42.154;23.002;2022-11-12T14:27:39;98379.63;;;13.02;62.59
36630;BME280;36256;42.154;23.002;2022-11-12T14:30:32;98402.66;;;12.84;62.47
36630;BME280;36256;42.154;23.002;2022-11-12T14:33:09;98402.06;;;12.77;63.81
36630;BME280;36256;42.154;23.002;2022-11-12T14:35:37;98402.44;;;12.63;64.55
36630;BME280;36256;42.154;23.002;2022-11-12T14:38:12;98396.28;;;12.51;65.69
36630;BME280;36256;42.154;23.002;2022-11-12T14:40:56;98398.56;;;12.56;65.31
36630;BME280;36256;42.154;23.002;2022-11-12T14:45:57;98412.13;;;12.45;65.30
36630;BME280;36256;42.154;23.002;2022-11-12T14:48:25;98411.56;;;12.34;67.06
36630;BME280;36256;42.154;23.002;2022-11-12T14:51:05;98401.72;;;12.26;66.56
36630;BME280;36256;42.154;23.002;2022-11-12T14:53:38;98409.47;;;12.22;66.72
36630;BME280;36256;42.154;23.002;2022-11-12T14:56:10;98408.72;;;12.02;68.20
36630;BME280;36256;42.154;23.002;2022-11-12T14:58:38;98419.72;;;11.97;68.46
36630;BME280;36256;42.154;23.002;2022-11-12T15:01:27;98419.56;;;12.04;68.73
36630;BME280;36256;42.154;23.002;2022-11-12T15:04:17;98413.63;;;11.98;68.99
36630;BME280;36256;42.154;23.002;2022-11-12T15:06:52;98417.69;;;11.97;68.62
36630;BME280;36256;42.154;23.002;2022-11-12T15:09:36;98403.44;;;11.88;68.84
36630;BME280;36256;42.154;23.002;2022-11-12T15:12:09;98413.97;;;11.84;69.81
36630;BME280;36256;42.154;23.002;2022-11-12T15:14:37;98395.31;;;11.74;70.22
36630;BME280;36256;42.154;23.002;2022-11-12T15:17:04;98409.91;;;11.85;69.93
36630;BME280;36256;42.154;23.002;2022-11-12T15:19:31;98403.31;;;11.75;70.73
36630;BME280;36256;42.154;23.002;2022-11-12T15:21:59;98410.00;;;11.81;71.19
36630;BME280;36256;42.154;23.002;2022-11-12T15:24:34;98409.28;;;11.77;70.29
36630;BME280;36256;42.154;23.002;2022-11-12T15:27:37;98413.84;;;11.71;71.24
36630;BME280;36256;42.154;23.002;2022-11-12T15:30:25;98412.34;;;11.67;71.28
36630;BME280;36256;42.154;23.002;2022-11-12T15:35:38;98418.31;;;11.69;70.09
36630;BME280;36256;42.154;23.002;2022-11-12T15:38:32;98420.69;;;11.70;70.29
36630;BME280;36256;42.154;23.002;2022-11-12T15:41:01;98407.88;;;11.66;70.62
36630;BME280;36256;42.154;23.002;2022-11-12T15:43:31;98420.63;;;11.74;69.15